Mt Hood
Mt. Hood Meadows - Cascade Express
Latest observation 08/31 21:00 PDT
| Time (PDT) | Temp °F 7300' | RH % 7300' | Min mph 7300' | Spd mph 7300' | Gust mph 7300' | Dir ° 7300' |
|---|---|---|---|---|---|---|
| 08/31 21:00 | 53 | 45 | 0 | 0 | 1 | 183 |
| 08/31 20:00 | 55 | 44 | 0 | 1 | 7 | 177 |
| 08/31 19:00 | 56 | 41 | 0 | 1 | 9 | 132 |
| 08/31 18:00 | 59 | 39 | 0 | 4 | 14 | 139 |
| 08/31 17:00 | 60 | 32 | 0 | 4 | 20 | 96 |
| 08/31 16:00 | 59 | 30 | 0 | 5 | 19 | 77 |
| 08/31 15:00 | 60 | 29 | 0 | 5 | 17 | 86 |
| 08/31 14:00 | 59 | 27 | 0 | 5 | 16 | 99 |
| 08/31 13:00 | 66 | 19 | 0 | 3 | 16 | 145 |
| 08/31 12:00 | 64 | 19 | 0 | 4 | 14 | 148 |
| 08/31 11:00 | 64 | 17 | 0 | 3 | 15 | 141 |
| 08/31 10:00 | 61 | 21 | 0 | 3 | 17 | 126 |
| 08/31 09:00 | 60 | 21 | 0 | 3 | 19 | 157 |
| 08/31 08:00 | 59 | 23 | 0 | 2 | 13 | 213 |
| 08/31 07:00 | 52 | 31 | 0 | 3 | 12 | 215 |
| 08/31 06:00 | 49 | 33 | 0 | 3 | 16 | 227 |
| 08/31 05:00 | 48 | 37 | 0 | 2 | 8 | 213 |
| 08/31 04:00 | 45 | 45 | 0 | 0 | 4 | 204 |
| 08/31 03:00 | 46 | 46 | 0 | 0 | 2 | 231 |
| 08/31 02:00 | 46 | 57 | 0 | 0 | 0 | 232 |
| 08/31 01:00 | 50 | 45 | 0 | 1 | 7 | 242 |
| 08/31 00:00 | 48 | 56 | 0 | 0 | 1 | 242 |
| 08/30 23:00 | 50 | 54 | 0 | 0 | 0 | 303 |
| 08/30 22:00 | 49 | 57 | 0 | 1 | 8 | 343 |
| 08/30 21:00 | 50 | 56 | 0 | 2 | 10 | 320 |
| 08/30 20:00 | 49 | 59 | 0 | 0 | 4 | 216 |
| 08/30 19:00 | 51 | 58 | 0 | 1 | 7 | 172 |
| 08/30 18:00 | 52 | 56 | 0 | 1 | 8 | 116 |
| 08/30 17:00 | 50 | 59 | 0 | 4 | 13 | 45 |
| 08/30 16:00 | 50 | 58 | 0 | 4 | 16 | 32 |
| 08/30 15:00 | 51 | 54 | 0 | 4 | 18 | 30 |
| 08/30 14:00 | 50 | 54 | 0 | 4 | 17 | 40 |
| 08/30 13:00 | 50 | 57 | 0 | 4 | 16 | 71 |
| 08/30 12:00 | 50 | 57 | 0 | 4 | 16 | 84 |
| 08/30 11:00 | 48 | 49 | 0 | 3 | 14 | 82 |
| 08/30 10:00 | 47 | 43 | 0 | 2 | 12 | 18 |
| 08/30 09:00 | 45 | 39 | 0 | 1 | 6 | 10 |
| 08/30 08:00 | 45 | 33 | 0 | 0 | 3 | 10 |
| 08/30 07:00 | 43 | 29 | 0 | 0 | 0 | 10 |
| 08/30 06:00 | 37 | 37 | 0 | 0 | 2 | 10 |
| 08/30 05:00 | 39 | 33 | 0 | 0 | 1 | 10 |
| 08/30 04:00 | 39 | 33 | 0 | 0 | 3 | 11 |
| 08/30 03:00 | 40 | 34 | 0 | 0 | 7 | 20 |
| 08/30 02:00 | 40 | 32 | 0 | 0 | 2 | 313 |
| 08/30 01:00 | 40 | 35 | 0 | 1 | 8 | 340 |
| 08/30 00:00 | 40 | 39 | 0 | 3 | 21 | 297 |
| 08/29 23:00 | 44 | 25 | 0 | 8 | 23 | 297 |
| 08/29 22:00 | 38 | 61 | 0 | 1 | 14 | 343 |
| 08/29 21:00 | 36 | 79 | 0 | 2 | 21 | 344 |
| 08/29 20:00 | 36 | 67 | 0 | 12 | 33 | 247 |
| 08/29 19:00 | 35 | 93 | 0 | 14 | 34 | 240 |
| 08/29 18:00 | 36 | 85 | 0 | 14 | 40 | 246 |
| 08/29 17:00 | 36 | 85 | 0 | 15 | 36 | 242 |
| 08/29 16:00 | 36 | 88 | 0 | 12 | 37 | 246 |
| 08/29 15:00 | 38 | 70 | 0 | 11 | 33 | 253 |
| 08/29 14:00 | 36 | 84 | 0 | 12 | 34 | 254 |
| 08/29 13:00 | 38 | 72 | 0 | 10 | 34 | 263 |
| 08/29 12:00 | 36 | 89 | 0 | 13 | 38 | 262 |
| 08/29 11:00 | 33 | 100 | 0 | 13 | 35 | 248 |
| 08/29 10:00 | 32 | 98 | 0 | 16 | 44 | 239 |
| 08/29 09:00 | 33 | 100 | 0 | 15 | 38 | 231 |
| 08/29 08:00 | 33 | 100 | 0 | 12 | 37 | 232 |
| 08/29 07:00 | 33 | 98 | 0 | 15 | 38 | 242 |
| 08/29 06:00 | 34 | 81 | 0 | 15 | 44 | 246 |
| 08/29 05:00 | 37 | 50 | 0 | 17 | 41 | 241 |
| 08/29 04:00 | 35 | 82 | 0 | 17 | 40 | 233 |
| 08/29 03:00 | 37 | 70 | 0 | 15 | 38 | 241 |
| 08/29 02:00 | 40 | 51 | 0 | 14 | 37 | 246 |
| 08/29 01:00 | 40 | 59 | 0 | 15 | 37 | 244 |
| 08/29 00:00 | 43 | 36 | 0 | 12 | 37 | 251 |
| 08/28 23:00 | 46 | 19 | 0 | 12 | 35 | 252 |
| 08/28 22:00 | 48 | 24 | 0 | 13 | 33 | 242 |
| 08/28 21:00 | 49 | 25 | 0 | 13 | 33 | 238 |
| 08/28 20:00 | 48 | 30 | 0 | 12 | 30 | 240 |
| 08/28 19:00 | 49 | 25 | 0 | 11 | 31 | 233 |
| 08/28 18:00 | 51 | 19 | 0 | 8 | 26 | 220 |
| 08/28 17:00 | 54 | 25 | 0 | 8 | 23 | 216 |
| 08/28 16:00 | 56 | 9 | 0 | 7 | 21 | 215 |
| 08/28 15:00 | 59 | 19 | 0 | 6 | 18 | 190 |
| 08/28 14:00 | 61 | 25 | 0 | 6 | 20 | 163 |
| 08/28 13:00 | 62 | 27 | 0 | 5 | 21 | 156 |
| 08/28 12:00 | 54 | 42 | 0 | 4 | 15 | 87 |
| 08/28 11:00 | 51 | 58 | 0 | 4 | 19 | 109 |
| 08/28 10:00 | 53 | 43 | 0 | 3 | 12 | 102 |
| 08/28 09:00 | 51 | 42 | 0 | 1 | 7 | 64 |
| 08/28 08:00 | 49 | 38 | 0 | 0 | 3 | 276 |
| 08/28 07:00 | 47 | 36 | 0 | 0 | 4 | 264 |
| 08/28 06:00 | 46 | 29 | 0 | 0 | 0 | 221 |
| 08/28 05:00 | 45 | 32 | 0 | 0 | 1 | 233 |
| 08/28 04:00 | 45 | 31 | 0 | 0 | 1 | 341 |
| 08/28 03:00 | 48 | 23 | 0 | 1 | 8 | 317 |
| 08/28 02:00 | 48 | 22 | 0 | 1 | 8 | 325 |
| 08/28 01:00 | 48 | 22 | 0 | 1 | 8 | 267 |
| 08/28 00:00 | 50 | 9 | 0 | 5 | 21 | 230 |
| 08/27 23:00 | 51 | 4 | 0 | 9 | 27 | 224 |
| 08/27 22:00 | 52 | 3 | 0 | 11 | 31 | 239 |
| 08/27 21:00 | 53 | 3 | 0 | 12 | 33 | 246 |
| 08/27 20:00 | 52 | 6 | 0 | 9 | 37 | 249 |
| 08/27 19:00 | 52 | 18 | 0 | 7 | 26 | 249 |
| 08/27 18:00 | 53 | 20 | 0 | 7 | 26 | 254 |
| 08/27 17:00 | 53 | 28 | 0 | 8 | 27 | 230 |
| 08/27 16:00 | 55 | 19 | 0 | 9 | 29 | 219 |
| 08/27 15:00 | 57 | 24 | 0 | 7 | 24 | 219 |
| 08/27 14:00 | 56 | 25 | 0 | 10 | 26 | 217 |
| 08/27 13:00 | 56 | 13 | 0 | 10 | 28 | 219 |
| 08/27 12:00 | 56 | 8 | 0 | 12 | 35 | 220 |
| 08/27 11:00 | 56 | 7 | 0 | 12 | 33 | 226 |
| 08/27 10:00 | 53 | 9 | 0 | 15 | 39 | 226 |
| 08/27 09:00 | 53 | 12 | 0 | 13 | 37 | 225 |
| 08/27 08:00 | 50 | 36 | 0 | 15 | 41 | 221 |
| 08/27 07:00 | 47 | 54 | 0 | 16 | 38 | 228 |
| 08/27 06:00 | 45 | 68 | 0 | 14 | 35 | 221 |
| 08/27 05:00 | 45 | 92 | 0 | 12 | 36 | 218 |
| 08/27 04:00 | 46 | 92 | 0 | 10 | 34 | 212 |
| 08/27 03:00 | 48 | 83 | 0 | 13 | 31 | 191 |
| 08/27 02:00 | 49 | 75 | 0 | 14 | 34 | 198 |
| 08/27 01:00 | 50 | 74 | 0 | 13 | 32 | 196 |
| 08/27 00:00 | 49 | 78 | 0 | 13 | 34 | 216 |
| 08/26 23:00 | 50 | 67 | 0 | 16 | 39 | 222 |
| 08/26 22:00 | 51 | 59 | 0 | 16 | 42 | 228 |
| 08/26 21:00 | 51 | 58 | 0 | 16 | 40 | 223 |
| 08/26 20:00 | 52 | 55 | 0 | 16 | 42 | 220 |
| 08/26 19:00 | 53 | 39 | 0 | 14 | 40 | 217 |
| 08/26 18:00 | 55 | 35 | 0 | 14 | 37 | 217 |
| 08/26 17:00 | 56 | 45 | 0 | 12 | 35 | 217 |
| 08/26 16:00 | 59 | 42 | 0 | 11 | 33 | 195 |
| 08/26 15:00 | 62 | 36 | 0 | 9 | 31 | 176 |
| 08/26 14:00 | 64 | 29 | 0 | 9 | 30 | 182 |
| 08/26 13:00 | 66 | 27 | 0 | 9 | 32 | 173 |
| 08/26 12:00 | 68 | 23 | 0 | 7 | 24 | 196 |
| 08/26 11:00 | 69 | 15 | 0 | 6 | 21 | 201 |
| 08/26 10:00 | 70 | 12 | 0 | 5 | 16 | 199 |
| 08/26 09:00 | 69 | 17 | 0 | 4 | 12 | 203 |
| 08/26 08:00 | 62 | 21 | 0 | 4 | 11 | 226 |
| 08/26 07:00 | 56 | 31 | 0 | 4 | 11 | 228 |
| 08/26 06:00 | 54 | 34 | 0 | 3 | 12 | 226 |
| 08/26 05:00 | 56 | 41 | 0 | 1 | 7 | 230 |
| 08/26 04:00 | 55 | 42 | 0 | 0 | 4 | 206 |
| 08/26 03:00 | 57 | 40 | 0 | 0 | 8 | 237 |
| 08/26 02:00 | 56 | 38 | 0 | 3 | 9 | 242 |
| 08/26 01:00 | 56 | 37 | 0 | 4 | 10 | 238 |
| 08/26 00:00 | 57 | 32 | 0 | 5 | 15 | 241 |
| 08/25 23:00 | 57 | 28 | 0 | 7 | 19 | 235 |
| 08/25 22:00 | 57 | 23 | 0 | 9 | 28 | 230 |
| 08/25 21:00 | 57 | 24 | 0 | 10 | 27 | 232 |
| 08/25 20:00 | 58 | 28 | 0 | 9 | 26 | 225 |
| 08/25 19:00 | 59 | 33 | 0 | 8 | 24 | 216 |
| 08/25 18:00 | 61 | 35 | 0 | 7 | 23 | 209 |
| 08/25 17:00 | 65 | 32 | 0 | 6 | 17 | 190 |
| 08/25 16:00 | 66 | 30 | 0 | 7 | 25 | 184 |
| 08/25 15:00 | 70 | 29 | 0 | 7 | 26 | 164 |
| 08/25 14:00 | 70 | 30 | 0 | 6 | 23 | 152 |
| 08/25 13:00 | 73 | 25 | 0 | 6 | 20 | 158 |
| 08/25 12:00 | 73 | 25 | 0 | 3 | 17 | 153 |
| 08/25 11:00 | 74 | 24 | 0 | 3 | 10 | 145 |
| 08/25 10:00 | 63 | 33 | 0 | 2 | 13 | 44 |
| 08/25 09:00 | 61 | 37 | 0 | 3 | 15 | 1 |
| 08/25 08:00 | 60 | 36 | 0 | 5 | 20 | 330 |
| 08/25 07:00 | 57 | 38 | 0 | 5 | 18 | 340 |
| 08/25 06:00 | 58 | 27 | 0 | 4 | 15 | 333 |
| 08/25 05:00 | 59 | 29 | 0 | 1 | 10 | 335 |
| 08/25 04:00 | 59 | 29 | 0 | 1 | 9 | 339 |
| 08/25 03:00 | 59 | 28 | 0 | 4 | 13 | 341 |
| 08/25 02:00 | 58 | 34 | 0 | 4 | 13 | 344 |
| 08/25 01:00 | 57 | 39 | 0 | 4 | 14 | 329 |
| 08/25 00:00 | 56 | 43 | 0 | 2 | 14 | 288 |
| 08/24 23:00 | 57 | 43 | 0 | 0 | 1 | 251 |
| 08/24 22:00 | 58 | 42 | 0 | 0 | 0 | 251 |

